createdAt,value
2022-08-26T00:00:59.742Z,21.79
2022-08-26T00:01:59.626Z,21.78
2022-08-26T00:02:59.570Z,21.76
2022-08-26T00:03:59.625Z,21.78
2022-08-26T00:04:59.563Z,21.75
2022-08-26T00:05:59.522Z,21.75
2022-08-26T00:06:59.535Z,21.72
2022-08-26T00:07:59.516Z,21.72
2022-08-26T00:08:59.492Z,21.71
2022-08-26T00:09:59.486Z,21.71
2022-08-26T00:10:59.861Z,21.71
2022-08-26T00:11:59.563Z,21.71
2022-08-26T00:12:59.456Z,21.69
2022-08-26T00:13:59.424Z,21.67
2022-08-26T00:14:59.429Z,21.71
2022-08-26T00:15:59.408Z,21.67
2022-08-26T00:16:59.424Z,21.69
2022-08-26T00:17:59.395Z,21.66
2022-08-26T00:18:59.379Z,21.66
2022-08-26T00:19:59.358Z,21.64
2022-08-26T00:20:59.335Z,21.63
2022-08-26T00:22:00.330Z,21.63
2022-08-26T00:22:59.307Z,21.59
2022-08-26T00:23:59.333Z,21.59
2022-08-26T00:24:59.303Z,21.56
2022-08-26T00:25:59.259Z,21.54
2022-08-26T00:26:59.280Z,21.53
2022-08-26T00:27:59.244Z,21.53
2022-08-26T00:28:59.221Z,21.51
2022-08-26T00:29:59.335Z,21.50
2022-08-26T00:30:59.202Z,21.50
2022-08-26T00:31:59.237Z,21.48
2022-08-26T00:32:59.197Z,21.46
2022-08-26T00:33:59.151Z,21.45
2022-08-26T00:34:59.155Z,21.45
2022-08-26T00:35:59.255Z,21.45
2022-08-26T00:36:59.122Z,21.42
2022-08-26T00:37:59.116Z,21.42
2022-08-26T00:38:59.099Z,21.39
2022-08-26T00:40:00.767Z,21.39
2022-08-26T00:41:00.108Z,21.36
2022-08-26T00:41:59.047Z,21.36
2022-08-26T00:42:59.051Z,21.35
2022-08-26T00:43:59.031Z,21.35
2022-08-26T00:44:59.008Z,21.34
2022-08-26T00:45:59.019Z,21.32
2022-08-26T00:46:58.988Z,21.30
2022-08-26T00:47:58.966Z,21.29
2022-08-26T00:48:58.972Z,21.26
2022-08-26T00:49:58.951Z,21.26
2022-08-26T00:50:58.928Z,21.26
2022-08-26T00:51:58.912Z,21.23
2022-08-26T00:52:58.916Z,21.24
2022-08-26T00:53:58.881Z,21.23
2022-08-26T00:54:58.894Z,21.21
2022-08-26T00:55:58.873Z,21.19
2022-08-26T00:57:00.063Z,21.19
2022-08-26T00:57:58.845Z,21.17
2022-08-26T00:58:58.823Z,21.16
2022-08-26T00:59:58.803Z,21.14
2022-08-26T01:00:58.858Z,21.14
2022-08-26T01:01:58.928Z,21.13
2022-08-26T01:02:58.786Z,21.13
2022-08-26T01:03:58.766Z,21.09
2022-08-26T01:04:58.743Z,21.08
2022-08-26T01:05:58.725Z,21.06
2022-08-26T01:06:58.729Z,21.05
2022-08-26T01:07:58.819Z,21.04
2022-08-26T01:08:58.687Z,21.02
2022-08-26T01:09:58.681Z,21.01
2022-08-26T01:10:58.657Z,21.01
2022-08-26T01:11:58.639Z,20.99
2022-08-26T01:12:58.652Z,20.98
2022-08-26T01:13:58.737Z,20.95
2022-08-26T01:14:58.623Z,20.95
2022-08-26T01:15:58.657Z,20.95
2022-08-26T01:16:58.579Z,20.93
2022-08-26T01:17:58.574Z,20.90
2022-08-26T01:18:58.550Z,20.90
2022-08-26T01:19:58.532Z,20.91
2022-08-26T01:20:58.542Z,20.89
2022-08-26T01:21:58.523Z,20.89
2022-08-26T01:22:58.492Z,20.87
2022-08-26T01:23:58.483Z,20.89
2022-08-26T01:24:58.596Z,20.87
2022-08-26T01:25:58.454Z,20.84
2022-08-26T01:26:58.457Z,20.83
2022-08-26T01:27:58.454Z,20.83
2022-08-26T01:28:58.415Z,20.83
2022-08-26T01:29:58.409Z,20.81
2022-08-26T01:30:58.416Z,20.79
2022-08-26T01:31:58.403Z,20.77
2022-08-26T01:32:58.380Z,20.77
2022-08-26T01:33:58.346Z,20.76
2022-08-26T01:34:58.350Z,20.74
2022-08-26T01:35:58.330Z,20.72
2022-08-26T01:36:58.428Z,20.71
2022-08-26T01:37:58.303Z,20.69
2022-08-26T01:38:58.280Z,20.68
2022-08-26T01:39:58.282Z,20.68
2022-08-26T01:40:58.272Z,20.66
2022-08-26T01:41:58.229Z,20.66
2022-08-26T01:42:58.243Z,20.65
2022-08-26T01:43:58.225Z,20.66
2022-08-26T01:44:58.201Z,20.66
2022-08-26T01:45:58.234Z,20.68
2022-08-26T01:46:58.171Z,20.68
2022-08-26T01:47:58.152Z,20.66
2022-08-26T01:48:58.166Z,20.66
2022-08-26T01:49:58.122Z,20.64
2022-08-26T01:50:58.135Z,20.64
2022-08-26T01:51:58.115Z,20.64
2022-08-26T01:52:58.140Z,20.61
2022-08-26T01:53:58.073Z,20.64
2022-08-26T01:54:58.078Z,20.61
2022-08-26T01:55:58.057Z,20.61
2022-08-26T01:56:58.035Z,20.61
2022-08-26T01:57:58.029Z,20.59
2022-08-26T01:58:58.007Z,20.58
2022-08-26T01:59:57.987Z,20.59
2022-08-26T02:00:58.030Z,20.59
2022-08-26T02:01:57.959Z,20.59
2022-08-26T02:02:57.972Z,20.59
2022-08-26T02:03:57.952Z,20.58
2022-08-26T02:04:57.954Z,20.56
2022-08-26T02:05:57.921Z,20.56
2022-08-26T02:06:57.897Z,20.54
2022-08-26T02:07:57.878Z,20.53
2022-08-26T02:08:57.883Z,20.53
2022-08-26T02:09:57.864Z,20.53
2022-08-26T02:10:57.840Z,20.50
2022-08-26T02:11:57.822Z,20.51
2022-08-26T02:12:57.833Z,20.49
2022-08-26T02:13:57.914Z,20.49
2022-08-26T02:14:57.804Z,20.47
2022-08-26T02:15:57.823Z,20.49
2022-08-26T02:16:57.762Z,20.46
2022-08-26T02:17:57.756Z,20.46
2022-08-26T02:18:57.733Z,20.43
2022-08-26T02:19:57.824Z,20.41
2022-08-26T02:20:57.718Z,20.39
2022-08-26T02:21:57.685Z,20.38
2022-08-26T02:22:57.689Z,20.38
2022-08-26T02:23:57.673Z,20.35
2022-08-26T02:24:57.650Z,20.34
2022-08-26T02:25:57.737Z,20.35
2022-08-26T02:26:57.642Z,20.34
2022-08-26T02:27:57.620Z,20.34
2022-08-26T02:28:57.588Z,20.35
2022-08-26T02:29:57.591Z,20.34
2022-08-26T02:30:57.568Z,20.33
2022-08-26T02:31:57.550Z,20.31
2022-08-26T02:32:57.553Z,20.31
2022-08-26T02:33:57.520Z,20.31
2022-08-26T02:34:57.525Z,20.30
2022-08-26T02:35:57.505Z,20.30
2022-08-26T02:36:57.601Z,20.28
2022-08-26T02:37:57.483Z,20.28
2022-08-26T02:38:57.452Z,20.27
2022-08-26T02:39:57.471Z,20.24
2022-08-26T02:40:57.446Z,20.24
2022-08-26T02:41:57.420Z,20.21
2022-08-26T02:42:57.539Z,20.20
2022-08-26T02:43:57.407Z,20.20
2022-08-26T02:44:57.374Z,20.20
2022-08-26T02:45:57.377Z,20.18
2022-08-26T02:46:57.407Z,20.21
2022-08-26T02:47:57.337Z,20.20
2022-08-26T02:48:57.339Z,20.18
2022-08-26T02:49:57.306Z,20.16
2022-08-26T02:50:57.301Z,20.13
2022-08-26T02:51:57.291Z,20.12
2022-08-26T02:52:57.260Z,20.09
2022-08-26T02:53:57.302Z,20.09
2022-08-26T02:54:57.228Z,20.10
2022-08-26T02:55:57.218Z,20.08
2022-08-26T02:56:57.225Z,20.10
2022-08-26T02:57:57.212Z,20.09
2022-08-26T02:58:57.182Z,20.08
2022-08-26T02:59:57.279Z,20.08
2022-08-26T03:00:57.229Z,20.03
2022-08-26T03:01:57.201Z,20.00
2022-08-26T03:02:57.135Z,20.02
2022-08-26T03:03:57.134Z,19.97
2022-08-26T03:04:57.858Z,19.95
2022-08-26T03:05:58.215Z,19.93
2022-08-26T03:06:57.062Z,19.90
2022-08-26T03:07:57.061Z,19.87
2022-08-26T03:08:57.057Z,19.83
2022-08-26T03:09:57.033Z,19.78
2022-08-26T03:10:57.027Z,19.75
2022-08-26T03:11:57.038Z,19.72
2022-08-26T03:12:56.985Z,19.72
2022-08-26T03:13:56.975Z,19.69
2022-08-26T03:14:56.970Z,19.68
2022-08-26T03:15:56.995Z,19.66
2022-08-26T03:16:57.055Z,19.63
2022-08-26T03:17:56.940Z,19.58
2022-08-26T03:18:56.905Z,19.57
2022-08-26T03:19:57.374Z,19.55
2022-08-26T03:20:56.890Z,19.55
2022-08-26T03:21:57.988Z,19.54
2022-08-26T03:22:56.976Z,19.54
2022-08-26T03:23:58.710Z,19.54
2022-08-26T03:24:56.821Z,19.54
2022-08-26T03:25:56.824Z,19.54
2022-08-26T03:26:56.790Z,19.53
2022-08-26T03:27:56.780Z,19.53
2022-08-26T03:28:56.785Z,19.53
2022-08-26T03:29:56.765Z,19.53
2022-08-26T03:30:56.775Z,19.54
2022-08-26T03:31:56.731Z,19.53
2022-08-26T03:32:56.727Z,19.51
2022-08-26T03:33:59.578Z,19.51
2022-08-26T03:34:56.701Z,19.50
2022-08-26T03:35:56.751Z,19.50
2022-08-26T03:36:56.653Z,19.50
2022-08-26T03:37:56.677Z,19.46
2022-08-26T03:38:56.655Z,19.43
2022-08-26T03:39:56.658Z,19.46
2022-08-26T03:40:56.619Z,19.42
2022-08-26T03:41:56.597Z,19.40
2022-08-26T03:42:56.590Z,19.39
2022-08-26T03:44:01.046Z,19.38
2022-08-26T03:44:57.659Z,19.38
2022-08-26T03:45:56.560Z,19.39
2022-08-26T03:46:56.525Z,19.39
2022-08-26T03:47:57.786Z,19.40
2022-08-26T03:48:56.511Z,19.40
2022-08-26T03:49:56.489Z,19.40
2022-08-26T03:50:56.483Z,19.38
2022-08-26T03:51:56.473Z,19.39
2022-08-26T03:52:56.440Z,19.39
2022-08-26T03:53:57.086Z,19.38
2022-08-26T03:54:56.411Z,19.39
2022-08-26T03:55:56.522Z,19.36
2022-08-26T03:56:56.404Z,19.38
2022-08-26T03:57:56.382Z,19.38
2022-08-26T03:58:56.377Z,19.43
2022-08-26T03:59:56.377Z,19.43
2022-08-26T04:00:56.341Z,19.42
2022-08-26T04:01:56.400Z,19.39
2022-08-26T04:02:56.355Z,19.33
2022-08-26T04:03:56.317Z,19.21
2022-08-26T04:04:56.284Z,19.11
2022-08-26T04:05:56.290Z,18.99
2022-08-26T04:06:56.255Z,18.94
2022-08-26T04:07:56.346Z,18.87
2022-08-26T04:08:56.240Z,18.86
2022-08-26T04:09:56.218Z,18.86
2022-08-26T04:10:56.219Z,18.83
2022-08-26T04:11:56.840Z,18.83
2022-08-26T04:12:56.288Z,18.83
2022-08-26T04:13:56.181Z,18.83
2022-08-26T04:14:57.169Z,18.87
2022-08-26T04:15:56.190Z,18.86
2022-08-26T04:16:56.141Z,18.90
2022-08-26T04:17:57.344Z,18.91
2022-08-26T04:18:56.120Z,18.91
2022-08-26T04:19:56.089Z,18.90
2022-08-26T04:20:56.087Z,18.86
2022-08-26T04:21:56.062Z,18.83
2022-08-26T04:22:56.057Z,18.80
2022-08-26T04:23:56.046Z,18.77
2022-08-26T04:24:56.052Z,18.73
2022-08-26T04:25:56.025Z,18.72
2022-08-26T04:26:56.003Z,18.70
2022-08-26T04:27:55.984Z,18.68
2022-08-26T04:28:55.977Z,18.70
2022-08-26T04:29:55.960Z,18.67
2022-08-26T04:30:56.001Z,18.64
2022-08-26T04:31:56.071Z,18.62
2022-08-26T04:32:55.906Z,18.61
2022-08-26T04:33:55.898Z,18.61
2022-08-26T04:34:55.915Z,18.59
2022-08-26T04:35:55.920Z,18.61
2022-08-26T04:36:55.858Z,18.62
2022-08-26T04:37:55.862Z,18.65
2022-08-26T04:38:55.828Z,18.64
2022-08-26T04:39:55.863Z,18.58
2022-08-26T04:40:55.914Z,18.49
2022-08-26T04:41:55.838Z,18.44
2022-08-26T04:42:55.793Z,18.43
2022-08-26T04:43:55.783Z,18.42
2022-08-26T04:44:55.759Z,18.42
2022-08-26T04:45:55.754Z,18.42
2022-08-26T04:46:55.720Z,18.39
2022-08-26T04:47:55.719Z,18.39
2022-08-26T04:48:55.712Z,18.36
2022-08-26T04:49:55.691Z,18.37
2022-08-26T04:50:55.688Z,18.34
2022-08-26T04:51:55.924Z,18.28
2022-08-26T04:52:55.784Z,18.22
2022-08-26T04:53:55.647Z,18.15
2022-08-26T04:54:55.624Z,18.04
2022-08-26T04:55:55.616Z,18.00
2022-08-26T04:56:55.607Z,17.97
2022-08-26T04:57:55.582Z,17.97
2022-08-26T04:58:55.692Z,18.00
2022-08-26T04:59:55.569Z,18.02
2022-08-26T05:00:55.535Z,18.03
2022-08-26T05:01:55.588Z,18.06
2022-08-26T05:02:55.506Z,18.09
2022-08-26T05:03:55.523Z,18.13
2022-08-26T05:04:55.500Z,18.15
2022-08-26T05:05:55.490Z,18.19
2022-08-26T05:07:02.198Z,18.25
2022-08-26T05:07:56.439Z,18.28
2022-08-26T05:08:55.442Z,18.40
2022-08-26T05:09:55.450Z,18.37
2022-08-26T05:10:55.413Z,18.18
2022-08-26T05:11:55.404Z,18.03
2022-08-26T05:12:55.370Z,17.92
2022-08-26T05:13:57.315Z,17.95
2022-08-26T05:14:55.341Z,18.02
2022-08-26T05:16:00.002Z,18.07
2022-08-26T05:16:56.335Z,18.07
2022-08-26T05:17:55.311Z,18.04
2022-08-26T05:18:55.306Z,17.99
2022-08-26T05:19:55.298Z,17.91
2022-08-26T05:20:55.264Z,17.87
2022-08-26T05:21:55.262Z,17.82
2022-08-26T05:22:55.257Z,17.82
2022-08-26T05:23:55.240Z,17.85
2022-08-26T05:24:55.206Z,17.89
2022-08-26T05:25:58.940Z,17.97
2022-08-26T05:26:56.530Z,17.97
2022-08-26T05:27:55.176Z,17.95
2022-08-26T05:28:55.340Z,17.91
2022-08-26T05:29:55.147Z,17.88
2022-08-26T05:30:55.175Z,17.87
2022-08-26T05:31:55.869Z,17.88
2022-08-26T05:32:55.463Z,17.91
2022-08-26T05:33:55.110Z,17.97
2022-08-26T05:34:55.078Z,18.02
2022-08-26T05:35:55.068Z,18.09
2022-08-26T05:36:55.063Z,18.18
2022-08-26T05:37:55.053Z,18.29
2022-08-26T05:38:55.058Z,18.39
2022-08-26T05:39:55.037Z,18.47
2022-08-26T05:40:55.005Z,18.52
2022-08-26T05:41:54.984Z,18.58
2022-08-26T05:42:54.985Z,18.65
2022-08-26T05:43:54.975Z,18.72
2022-08-26T05:44:56.078Z,18.77
2022-08-26T05:45:55.000Z,18.83
2022-08-26T05:46:54.913Z,18.91
2022-08-26T05:47:54.904Z,18.95
2022-08-26T05:48:54.905Z,19.01
2022-08-26T05:49:55.012Z,19.08
2022-08-26T05:50:54.886Z,19.11
2022-08-26T05:51:54.877Z,19.17
2022-08-26T05:52:54.834Z,19.20
2022-08-26T05:53:55.116Z,19.21
2022-08-26T05:54:54.806Z,19.21
2022-08-26T05:55:54.906Z,19.24
2022-08-26T05:56:54.790Z,19.28
2022-08-26T05:57:54.771Z,19.31
2022-08-26T05:58:54.777Z,19.33
2022-08-26T05:59:54.762Z,19.39
2022-08-26T06:00:54.729Z,19.42
2022-08-26T06:01:55.164Z,19.42
2022-08-26T06:02:54.745Z,19.46
2022-08-26T06:03:54.693Z,19.47
2022-08-26T06:04:54.692Z,19.51
2022-08-26T06:05:54.663Z,19.54
2022-08-26T06:06:54.772Z,19.61
2022-08-26T06:07:54.654Z,19.68
2022-08-26T06:08:54.621Z,19.73
2022-08-26T06:10:05.512Z,19.83
2022-08-26T06:10:55.606Z,19.90
2022-08-26T06:11:54.597Z,19.97
2022-08-26T06:12:54.594Z,20.08
2022-08-26T06:13:54.582Z,20.12
2022-08-26T06:14:54.533Z,20.23
2022-08-26T06:15:54.567Z,20.31
2022-08-26T06:16:54.528Z,20.41
2022-08-26T06:17:54.505Z,20.53
2022-08-26T06:18:54.609Z,20.64
2022-08-26T06:19:54.488Z,20.71
2022-08-26T06:20:57.887Z,20.81
2022-08-26T06:21:54.843Z,20.90
2022-08-26T06:22:54.446Z,20.99
2022-08-26T06:23:54.419Z,21.06
2022-08-26T06:24:54.421Z,21.16
2022-08-26T06:25:54.411Z,21.24
2022-08-26T06:26:54.377Z,21.35
2022-08-26T06:27:54.366Z,21.45
2022-08-26T06:28:54.362Z,21.56
2022-08-26T06:29:54.348Z,21.67
2022-08-26T06:30:54.382Z,21.79
2022-08-26T06:31:54.323Z,21.95
2022-08-26T06:32:54.291Z,22.06
2022-08-26T06:33:54.294Z,22.17
2022-08-26T06:34:54.381Z,22.28
2022-08-26T06:35:54.254Z,22.38
2022-08-26T06:36:54.256Z,22.49
2022-08-26T06:37:54.233Z,22.57
2022-08-26T06:38:54.226Z,22.68
2022-08-26T06:39:54.250Z,22.78
2022-08-26T06:40:54.223Z,22.89
2022-08-26T06:41:54.174Z,22.92
2022-08-26T06:42:54.168Z,22.89
2022-08-26T06:43:54.168Z,22.89
2022-08-26T06:44:54.133Z,22.87
2022-08-26T06:45:54.198Z,22.86
2022-08-26T06:46:54.215Z,22.82
2022-08-26T06:47:54.098Z,22.78
2022-08-26T06:48:54.099Z,22.80
2022-08-26T06:49:54.068Z,22.82
2022-08-26T06:50:54.069Z,22.86
2022-08-26T06:51:54.060Z,22.93
2022-08-26T06:52:54.026Z,23.05
2022-08-26T06:53:54.033Z,23.22
2022-08-26T06:54:53.990Z,23.35
2022-08-26T06:55:53.989Z,23.45
2022-08-26T06:56:53.985Z,23.52
2022-08-26T06:57:54.092Z,23.57
2022-08-26T06:58:53.950Z,23.64
2022-08-26T06:59:53.931Z,23.72
2022-08-26T07:00:53.935Z,23.83
2022-08-26T07:01:53.950Z,23.92
2022-08-26T07:02:53.945Z,24.00
2022-08-26T07:03:54.271Z,24.10
2022-08-26T07:04:53.913Z,24.19
2022-08-26T07:05:53.866Z,24.32
2022-08-26T07:06:54.004Z,24.39
2022-08-26T07:07:53.815Z,24.53
2022-08-26T07:08:53.838Z,24.64
2022-08-26T07:09:53.795Z,24.79
2022-08-26T07:10:53.800Z,24.83
2022-08-26T07:11:53.788Z,24.68
2022-08-26T07:12:53.757Z,24.64
2022-08-26T07:13:53.740Z,24.75
2022-08-26T07:14:53.781Z,24.90
2022-08-26T07:15:53.730Z,25.07
2022-08-26T07:16:53.706Z,25.22
2022-08-26T07:17:53.712Z,25.35
2022-08-26T07:18:53.688Z,25.46
2022-08-26T07:19:53.659Z,25.54
2022-08-26T07:20:53.702Z,25.68
2022-08-26T07:21:53.631Z,25.74
2022-08-26T07:22:53.645Z,25.75
2022-08-26T07:23:57.522Z,25.65
2022-08-26T07:24:54.602Z,25.53
2022-08-26T07:25:53.595Z,24.76
2022-08-26T07:26:53.573Z,24.17
2022-08-26T07:27:54.107Z,23.95
2022-08-26T07:28:53.569Z,23.85
2022-08-26T07:29:53.539Z,23.92
2022-08-26T07:30:53.553Z,24.07
2022-08-26T07:31:53.500Z,24.22
2022-08-26T07:32:53.542Z,24.45
2022-08-26T07:33:53.473Z,24.68
2022-08-26T07:34:53.481Z,24.95
2022-08-26T07:35:53.460Z,25.06
2022-08-26T07:36:53.439Z,24.90
2022-08-26T07:37:56.887Z,24.79
2022-08-26T07:38:53.437Z,24.49
2022-08-26T07:39:53.424Z,24.41
2022-08-26T07:40:53.401Z,24.59
2022-08-26T07:41:53.359Z,24.83
2022-08-26T07:42:53.371Z,25.09
2022-08-26T07:43:53.353Z,25.37
2022-08-26T07:44:53.333Z,25.68
2022-08-26T07:45:53.311Z,25.90
2022-08-26T07:46:53.559Z,26.09
2022-08-26T07:47:53.295Z,26.08
2022-08-26T07:48:53.274Z,26.06
2022-08-26T07:49:53.314Z,26.08
2022-08-26T07:50:53.245Z,25.99
2022-08-26T07:51:53.231Z,26.02
2022-08-26T07:52:53.238Z,26.15
2022-08-26T07:53:53.366Z,26.22
2022-08-26T07:54:53.207Z,26.28
2022-08-26T07:55:53.308Z,26.27
2022-08-26T07:56:53.166Z,26.21
2022-08-26T07:57:53.160Z,26.06
2022-08-26T07:58:53.142Z,26.12
2022-08-26T07:59:54.954Z,26.29
2022-08-26T08:00:53.131Z,26.46
2022-08-26T08:01:53.160Z,26.62
2022-08-26T08:02:53.101Z,26.79
2022-08-26T08:03:53.082Z,26.89
2022-08-26T08:04:53.160Z,27.04
2022-08-26T08:05:53.053Z,27.10
2022-08-26T08:06:53.049Z,27.21
2022-08-26T08:07:53.497Z,27.31
2022-08-26T08:08:54.026Z,27.29
2022-08-26T08:09:52.981Z,27.28
2022-08-26T08:10:52.994Z,27.28
2022-08-26T08:11:53.086Z,27.31
2022-08-26T08:12:52.950Z,27.38
2022-08-26T08:13:56.706Z,27.38
2022-08-26T08:14:52.924Z,27.24
2022-08-26T08:15:52.904Z,27.11
2022-08-26T08:16:54.901Z,27.04
2022-08-26T08:17:54.057Z,26.91
2022-08-26T08:18:52.876Z,26.77
2022-08-26T08:19:52.865Z,26.74
2022-08-26T08:20:59.208Z,26.79
2022-08-26T08:21:53.826Z,26.72
2022-08-26T08:22:52.842Z,26.64
2022-08-26T08:23:52.973Z,26.62
2022-08-26T08:24:53.234Z,26.59
2022-08-26T08:25:52.792Z,26.50
2022-08-26T08:26:52.773Z,26.54
2022-08-26T08:27:52.752Z,26.57
2022-08-26T08:28:52.761Z,26.62
2022-08-26T08:29:52.731Z,26.68
2022-08-26T08:30:52.753Z,26.65
2022-08-26T08:31:57.870Z,26.15
2022-08-26T08:32:53.691Z,25.67
2022-08-26T08:33:52.671Z,25.37
2022-08-26T08:34:52.685Z,25.38
2022-08-26T08:35:52.664Z,25.38
2022-08-26T08:36:53.566Z,25.39
2022-08-26T08:37:52.637Z,25.38
2022-08-26T08:38:52.613Z,25.39
2022-08-26T08:39:52.653Z,25.52
2022-08-26T08:40:52.607Z,25.72
2022-08-26T08:41:52.579Z,26.01
2022-08-26T08:43:52.560Z,26.43
2022-08-26T08:44:52.893Z,26.87
2022-08-26T08:45:52.724Z,27.43
2022-08-26T08:46:52.517Z,27.91
2022-08-26T08:47:54.093Z,28.17
2022-08-26T08:48:52.501Z,28.04
2022-08-26T08:49:52.481Z,28.04
2022-08-26T08:50:52.458Z,28.16
2022-08-26T08:51:52.469Z,27.88
2022-08-26T08:52:52.443Z,27.41
2022-08-26T08:53:54.673Z,27.74
2022-08-26T08:54:52.426Z,28.01
2022-08-26T08:55:52.403Z,28.07
2022-08-26T08:56:52.380Z,28.07
2022-08-26T08:57:53.805Z,27.62
2022-08-26T08:58:52.352Z,27.42
2022-08-26T08:59:52.333Z,27.35
2022-08-26T09:00:52.384Z,27.24
2022-08-26T09:01:54.074Z,27.79
2022-08-26T09:02:52.316Z,27.95
2022-08-26T09:03:52.298Z,28.38
2022-08-26T09:04:52.273Z,28.77
2022-08-26T09:05:52.271Z,28.85
2022-08-26T09:06:52.277Z,28.51
2022-08-26T09:07:52.227Z,27.67
2022-08-26T09:08:52.239Z,27.53
2022-08-26T09:09:52.197Z,27.66
2022-08-26T09:10:52.201Z,27.86
2022-08-26T09:11:52.181Z,28.33
2022-08-26T09:12:52.159Z,27.88
2022-08-26T09:13:52.173Z,27.94
2022-08-26T09:14:52.138Z,27.92
2022-08-26T09:15:52.117Z,27.69
2022-08-26T09:16:52.177Z,28.23
2022-08-26T09:17:52.090Z,28.60
2022-08-26T09:18:52.216Z,29.18
2022-08-26T09:19:52.075Z,29.57
2022-08-26T09:20:52.052Z,29.70
2022-08-26T09:21:53.348Z,29.22
2022-08-26T09:22:52.046Z,29.38
2022-08-26T09:23:52.037Z,28.90
2022-08-26T09:24:52.003Z,28.56
2022-08-26T09:25:52.068Z,28.96
2022-08-26T09:26:51.975Z,29.68
2022-08-26T09:27:51.955Z,30.24
2022-08-26T09:28:51.969Z,30.11
2022-08-26T09:29:51.926Z,30.03
2022-08-26T09:30:51.956Z,29.93
2022-08-26T09:31:51.918Z,29.62
2022-08-26T09:32:55.924Z,29.97
2022-08-26T09:33:51.891Z,30.16
2022-08-26T09:34:51.888Z,29.77
2022-08-26T09:35:51.850Z,29.06
2022-08-26T09:36:51.853Z,28.90
2022-08-26T09:38:51.820Z,29.04
2022-08-26T09:39:51.824Z,29.49
2022-08-26T09:40:56.201Z,29.20
2022-08-26T09:41:52.775Z,29.06
2022-08-26T09:42:51.775Z,28.72
2022-08-26T09:43:51.756Z,28.53
2022-08-26T09:44:51.734Z,29.00
2022-08-26T09:45:54.918Z,29.23
2022-08-26T09:46:51.824Z,29.52
2022-08-26T09:47:51.693Z,29.71
2022-08-26T09:48:53.227Z,29.84
2022-08-26T09:49:51.665Z,29.86
2022-08-26T09:50:51.678Z,29.93
2022-08-26T09:51:51.658Z,29.93
2022-08-26T09:52:51.681Z,29.70
2022-08-26T09:53:51.615Z,28.95
2022-08-26T09:54:51.624Z,28.73
2022-08-26T09:55:51.605Z,28.43
2022-08-26T09:56:51.587Z,27.91
2022-08-26T09:57:51.611Z,27.86
2022-08-26T09:58:51.550Z,28.19
2022-08-26T09:59:51.599Z,28.56
2022-08-26T10:00:51.617Z,28.87
2022-08-26T10:01:51.616Z,28.69
2022-08-26T10:02:53.631Z,28.63
2022-08-26T10:03:51.702Z,28.48
2022-08-26T10:04:51.473Z,28.85
2022-08-26T10:05:51.474Z,29.10
2022-08-26T10:06:51.451Z,29.53
2022-08-26T10:07:51.433Z,29.86
2022-08-26T10:08:51.560Z,30.12
2022-08-26T10:09:51.650Z,30.75
2022-08-26T10:10:53.211Z,31.30
2022-08-26T10:11:51.396Z,30.94
2022-08-26T10:12:51.376Z,30.47
2022-08-26T10:13:51.372Z,30.36
2022-08-26T10:14:51.352Z,30.87
2022-08-26T10:15:51.327Z,30.96
2022-08-26T10:16:51.387Z,31.06
2022-08-26T10:17:51.298Z,31.33
2022-08-26T10:18:51.314Z,31.33
2022-08-26T10:19:57.057Z,31.05
2022-08-26T10:20:52.266Z,30.75
2022-08-26T10:21:53.081Z,30.61
2022-08-26T10:22:51.240Z,29.96
2022-08-26T10:23:51.222Z,29.49
2022-08-26T10:24:54.901Z,29.38
2022-08-26T10:25:51.221Z,29.60
2022-08-26T10:26:51.196Z,29.72
2022-08-26T10:27:53.546Z,29.71
2022-08-26T10:28:51.177Z,29.87
2022-08-26T10:29:51.143Z,30.37
2022-08-26T10:30:51.148Z,30.49
2022-08-26T10:31:51.382Z,30.54
2022-08-26T10:32:51.106Z,30.68
2022-08-26T10:33:52.535Z,30.71
2022-08-26T10:34:51.076Z,30.84
2022-08-26T10:35:51.066Z,30.75
2022-08-26T10:37:52.037Z,31.65
2022-08-26T10:38:51.041Z,32.21
2022-08-26T10:39:53.054Z,32.11
2022-08-26T10:40:52.181Z,31.91
2022-08-26T10:41:50.979Z,31.45
2022-08-26T10:42:50.997Z,30.83
2022-08-26T10:43:50.973Z,30.86
2022-08-26T10:44:50.954Z,31.13
2022-08-26T10:45:50.999Z,31.57
2022-08-26T10:46:50.922Z,31.61
2022-08-26T10:47:50.902Z,31.38
2022-08-26T10:48:52.136Z,31.49
2022-08-26T10:49:50.892Z,30.68
2022-08-26T10:50:50.886Z,30.43
2022-08-26T10:51:50.876Z,30.30
2022-08-26T10:52:50.843Z,30.46
2022-08-26T10:53:51.586Z,30.31
2022-08-26T10:54:50.816Z,30.81
2022-08-26T10:55:50.816Z,31.18
2022-08-26T10:56:50.810Z,31.45
2022-08-26T10:57:50.791Z,32.10
2022-08-26T10:58:50.766Z,32.25
2022-08-26T10:59:50.749Z,32.33
2022-08-26T11:00:50.771Z,32.30
2022-08-26T11:01:50.960Z,32.48
2022-08-26T11:02:50.763Z,32.54
2022-08-26T11:03:50.737Z,32.66
2022-08-26T11:04:50.846Z,32.21
2022-08-26T11:05:50.685Z,31.75
2022-08-26T11:06:50.662Z,32.07
2022-08-26T11:07:50.642Z,32.39
2022-08-26T11:08:50.775Z,33.06
2022-08-26T11:09:50.612Z,33.11
2022-08-26T11:10:50.627Z,33.63
2022-08-26T11:11:50.608Z,33.60
2022-08-26T11:12:50.583Z,33.29
2022-08-26T11:13:50.590Z,33.04
2022-08-26T11:14:58.462Z,33.13
2022-08-26T11:15:51.544Z,32.80
2022-08-26T11:16:50.690Z,32.61
2022-08-26T11:17:50.517Z,32.21
2022-08-26T11:18:51.308Z,32.20
2022-08-26T11:20:01.056Z,32.59
2022-08-26T11:20:51.477Z,32.48
2022-08-26T11:21:50.848Z,32.58
2022-08-26T11:22:50.449Z,32.59
2022-08-26T11:23:52.862Z,32.59
2022-08-26T11:24:50.472Z,32.11
2022-08-26T11:25:50.420Z,31.92
2022-08-26T11:26:56.388Z,32.18
2022-08-26T11:27:51.405Z,32.70
2022-08-26T11:28:50.382Z,32.96
2022-08-26T11:29:50.363Z,32.44
2022-08-26T11:30:56.978Z,31.92
2022-08-26T11:31:51.378Z,31.88
2022-08-26T11:32:50.322Z,31.87
2022-08-26T11:33:50.881Z,31.43
2022-08-26T11:34:50.297Z,31.58
2022-08-26T11:35:50.293Z,31.50
2022-08-26T11:36:50.287Z,31.27
2022-08-26T11:37:50.265Z,31.28
2022-08-26T11:38:50.260Z,31.28
2022-08-26T11:39:54.040Z,31.65
2022-08-26T11:40:51.226Z,32.24
2022-08-26T11:41:52.832Z,32.05
2022-08-26T11:42:50.197Z,32.22
2022-08-26T11:43:50.188Z,32.49
2022-08-26T11:44:50.187Z,32.48
2022-08-26T11:45:50.278Z,32.18
2022-08-26T11:46:50.149Z,31.91
2022-08-26T11:47:50.149Z,31.35
2022-08-26T11:48:50.135Z,31.13
2022-08-26T11:49:50.111Z,31.35
2022-08-26T11:50:50.145Z,31.87
2022-08-26T11:51:50.105Z,32.42
2022-08-26T11:52:50.072Z,32.66
2022-08-26T11:53:50.077Z,32.48
2022-08-26T11:54:50.044Z,32.11
2022-08-26T11:55:50.034Z,32.27
2022-08-26T11:56:50.037Z,32.55
2022-08-26T11:57:50.012Z,32.89
2022-08-26T11:58:50.009Z,32.85
2022-08-26T11:59:49.999Z,32.89
2022-08-26T12:00:49.967Z,32.42
2022-08-26T12:01:49.958Z,32.02
2022-08-26T12:02:49.961Z,31.76
2022-08-26T12:03:50.085Z,31.79
2022-08-26T12:04:50.030Z,32.17
2022-08-26T12:05:49.923Z,32.32
2022-08-26T12:06:49.889Z,31.95
2022-08-26T12:07:49.880Z,31.70
2022-08-26T12:08:49.875Z,32.06
2022-08-26T12:09:49.911Z,32.39
2022-08-26T12:10:49.850Z,32.42
2022-08-26T12:11:49.857Z,32.35
2022-08-26T12:12:49.802Z,32.40
2022-08-26T12:13:49.816Z,32.25
2022-08-26T12:14:49.782Z,32.30
2022-08-26T12:15:49.773Z,32.51
2022-08-26T12:16:49.804Z,32.52
2022-08-26T12:17:54.290Z,32.36
2022-08-26T12:18:50.749Z,32.17
2022-08-26T12:19:49.738Z,32.69
2022-08-26T12:20:49.705Z,32.71
2022-08-26T12:21:49.716Z,32.15
2022-08-26T12:22:49.680Z,31.99
2022-08-26T12:23:49.971Z,31.61
2022-08-26T12:24:49.675Z,31.40
2022-08-26T12:25:49.648Z,31.27
2022-08-26T12:26:49.642Z,30.96
2022-08-26T12:27:53.091Z,30.56
2022-08-26T12:28:49.623Z,30.38
2022-08-26T12:29:49.614Z,30.43
2022-08-26T12:30:49.579Z,30.40
2022-08-26T12:31:49.649Z,30.57
2022-08-26T12:32:56.548Z,30.72
2022-08-26T12:33:50.566Z,30.78
2022-08-26T12:34:49.533Z,30.80
2022-08-26T12:35:52.842Z,30.84
2022-08-26T12:36:50.678Z,31.12
2022-08-26T12:37:49.494Z,31.60
2022-08-26T12:38:49.499Z,31.77
2022-08-26T12:40:48.449Z,31.98
2022-08-26T12:40:53.139Z,32.02
2022-08-26T12:41:53.260Z,32.18
2022-08-26T12:42:53.116Z,32.40
2022-08-26T12:43:53.106Z,32.59
2022-08-26T12:44:54.622Z,32.39
2022-08-26T12:45:53.118Z,32.22
2022-08-26T12:46:53.081Z,32.20
2022-08-26T12:47:53.073Z,32.48
2022-08-26T12:48:53.039Z,32.57
2022-08-26T12:49:53.031Z,32.47
2022-08-26T12:50:53.024Z,32.18
2022-08-26T12:51:53.015Z,32.15
2022-08-26T12:52:53.011Z,32.22
2022-08-26T12:53:52.995Z,32.14
2022-08-26T12:54:56.697Z,32.35
2022-08-26T12:55:52.953Z,32.32